createdAt,value
2018-02-27T00:01:08.739Z,63.43
2018-02-27T00:03:37.231Z,63.33
2018-02-27T00:06:05.691Z,64.09
2018-02-27T00:08:34.211Z,64.98
2018-02-27T00:11:02.817Z,64.72
2018-02-27T00:13:31.375Z,65.31
2018-02-27T00:16:00.946Z,68.19
2018-02-27T00:18:30.033Z,70.15
2018-02-27T00:20:58.509Z,71.09
2018-02-27T00:23:27.187Z,71.42
2018-02-27T00:25:55.632Z,71.62
2018-02-27T00:28:24.129Z,72.27
2018-02-27T00:30:52.627Z,72.36
2018-02-27T00:33:21.077Z,72.09
2018-02-27T00:35:49.557Z,71.94
2018-02-27T00:38:18.065Z,72.20
2018-02-27T00:40:46.520Z,71.51
2018-02-27T00:43:14.935Z,70.95
2018-02-27T00:45:44.047Z,70.63
2018-02-27T00:48:12.507Z,69.20
2018-02-27T00:50:40.995Z,70.16
2018-02-27T00:53:09.518Z,68.39
2018-02-27T00:55:37.968Z,66.98
2018-02-27T00:58:06.578Z,65.42
2018-02-27T01:00:35.162Z,63.89
2018-02-27T01:03:03.709Z,63.37
2018-02-27T01:05:32.242Z,63.25
2018-02-27T01:08:00.894Z,63.27
2018-02-27T01:10:29.366Z,62.01
2018-02-27T01:12:57.841Z,61.68
2018-02-27T01:15:26.645Z,61.82
2018-02-27T01:17:55.086Z,61.90
2018-02-27T01:20:23.566Z,61.59
2018-02-27T01:22:52.076Z,61.71
2018-02-27T01:25:20.522Z,61.73
2018-02-27T01:27:48.950Z,61.81
2018-02-27T01:30:17.416Z,61.79
2018-02-27T01:32:45.864Z,61.78
2018-02-27T01:35:14.310Z,61.89
2018-02-27T01:37:43.796Z,61.99
2018-02-27T01:40:12.232Z,62.30
2018-02-27T01:42:40.672Z,62.70
2018-02-27T01:45:09.150Z,62.38
2018-02-27T01:47:37.681Z,62.80
2018-02-27T01:50:06.158Z,62.41
2018-02-27T01:52:34.698Z,62.93
2018-02-27T01:55:03.152Z,63.23
2018-02-27T01:57:31.660Z,63.22
2018-02-27T02:00:00.191Z,62.93
2018-02-27T02:02:28.624Z,62.73
2018-02-27T02:04:57.090Z,62.75
2018-02-27T02:07:25.692Z,63.32
2018-02-27T02:09:54.159Z,63.75
2018-02-27T02:12:22.581Z,63.94
2018-02-27T02:14:51.038Z,64.13
2018-02-27T02:17:19.528Z,64.36
2018-02-27T02:19:47.970Z,64.87
2018-02-27T02:22:16.450Z,64.37
2018-02-27T02:24:44.942Z,64.48
2018-02-27T02:27:13.724Z,64.30
2018-02-27T02:29:42.186Z,63.87
2018-02-27T02:32:10.594Z,63.90
2018-02-27T02:34:39.102Z,64.07
2018-02-27T02:37:07.650Z,64.00
2018-02-27T02:39:36.107Z,63.70
2018-02-27T02:42:22.526Z,63.47
2018-02-27T02:44:51.961Z,63.05
2018-02-27T02:47:20.519Z,62.93
2018-02-27T02:49:49.008Z,62.15
2018-02-27T02:52:17.476Z,62.10
2018-02-27T02:54:46.055Z,61.33
2018-02-27T02:57:14.534Z,60.72
2018-02-27T02:59:43.033Z,60.66
2018-02-27T03:02:11.460Z,60.49
2018-02-27T03:04:39.965Z,60.00
2018-02-27T03:07:08.390Z,60.07
2018-02-27T03:09:36.913Z,59.73
2018-02-27T03:12:05.756Z,60.20
2018-02-27T03:14:34.330Z,60.00
2018-02-27T03:17:02.776Z,59.65
2018-02-27T03:19:31.338Z,59.44
2018-02-27T03:21:59.951Z,59.36
2018-02-27T03:24:28.430Z,58.97
2018-02-27T03:26:56.920Z,58.13
2018-02-27T03:29:25.352Z,59.26
2018-02-27T03:31:53.773Z,59.54
2018-02-27T03:34:22.318Z,58.88
2018-02-27T03:36:52.715Z,59.02
2018-02-27T03:39:21.196Z,59.01
2018-02-27T03:41:49.753Z,59.15
2018-02-27T03:44:18.222Z,59.48
2018-02-27T03:46:46.696Z,59.07
2018-02-27T03:49:15.143Z,59.49
2018-02-27T03:51:43.567Z,59.46
2018-02-27T03:54:12.014Z,58.99
2018-02-27T03:56:40.607Z,59.19
2018-02-27T03:59:09.093Z,58.92
2018-02-27T04:01:37.620Z,59.60
2018-02-27T04:04:06.523Z,59.81
2018-02-27T04:06:35.167Z,60.64
2018-02-27T04:09:03.783Z,61.44
2018-02-27T04:11:32.290Z,61.82
2018-02-27T04:14:00.878Z,61.14
2018-02-27T04:16:29.425Z,59.82
2018-02-27T04:18:58.354Z,58.78
2018-02-27T04:21:26.875Z,58.89
2018-02-27T04:23:55.355Z,58.83
2018-02-27T04:26:23.810Z,59.02
2018-02-27T04:28:52.283Z,58.07
2018-02-27T04:31:20.704Z,58.57
2018-02-27T04:33:49.182Z,59.20
2018-02-27T04:36:17.618Z,59.19
2018-02-27T04:38:46.129Z,59.36
2018-02-27T04:41:14.690Z,59.56
2018-02-27T04:43:43.150Z,59.17
2018-02-27T04:46:11.604Z,58.18
2018-02-27T04:48:40.451Z,58.08
2018-02-27T04:51:09.018Z,57.87
2018-02-27T04:53:37.500Z,58.17
2018-02-27T04:56:06.393Z,58.87
2018-02-27T04:58:34.982Z,59.07
2018-02-27T05:01:03.507Z,59.67
2018-02-27T05:03:32.090Z,59.68
2018-02-27T05:06:00.638Z,59.07
2018-02-27T05:08:29.218Z,59.68
2018-02-27T05:10:57.894Z,59.84
2018-02-27T05:13:26.387Z,60.56
2018-02-27T05:15:54.816Z,60.12
2018-02-27T05:18:23.421Z,59.58
2018-02-27T05:20:52.336Z,60.05
2018-02-27T05:23:20.773Z,59.79
2018-02-27T05:25:49.387Z,59.82
2018-02-27T05:28:20.078Z,59.45
2018-02-27T05:30:48.539Z,59.11
2018-02-27T05:33:17.016Z,60.02
2018-02-27T05:35:45.494Z,60.02
2018-02-27T05:38:13.931Z,60.33
2018-02-27T05:40:42.559Z,60.71
2018-02-27T05:43:11.890Z,60.56
2018-02-27T05:45:40.343Z,60.74
2018-02-27T05:48:08.839Z,60.78
2018-02-27T05:50:37.360Z,61.63
2018-02-27T05:53:05.844Z,61.37
2018-02-27T05:55:34.384Z,61.09
2018-02-27T05:58:02.851Z,61.38
2018-02-27T06:00:31.457Z,61.39
2018-02-27T06:03:00.583Z,61.51
2018-02-27T06:05:29.019Z,61.76
2018-02-27T06:07:57.536Z,61.45
2018-02-27T06:10:26.251Z,61.48
2018-02-27T06:12:54.783Z,61.07
2018-02-27T06:15:23.203Z,61.63
2018-02-27T06:17:51.731Z,60.97
2018-02-27T06:20:20.198Z,60.96
2018-02-27T06:22:48.733Z,61.22
2018-02-27T06:25:17.489Z,61.42
2018-02-27T06:27:47.268Z,61.28
2018-02-27T06:30:15.714Z,60.88
2018-02-27T06:32:44.596Z,64.31
2018-02-27T06:35:13.182Z,66.83
2018-02-27T06:37:41.688Z,68.58
2018-02-27T06:40:10.244Z,69.27
2018-02-27T06:42:38.712Z,69.55
2018-02-27T06:45:07.513Z,69.28
2018-02-27T06:47:36.497Z,67.20
2018-02-27T06:50:05.000Z,66.05
2018-02-27T06:52:33.573Z,64.38
2018-02-27T06:55:03.077Z,62.87
2018-02-27T06:57:31.621Z,62.51
2018-02-27T07:00:00.119Z,62.02
2018-02-27T07:02:28.622Z,60.73
2018-02-27T07:04:57.087Z,61.09
2018-02-27T07:07:25.649Z,60.53
2018-02-27T07:09:54.150Z,60.37
2018-02-27T07:12:28.260Z,60.62
2018-02-27T07:14:56.846Z,60.67
2018-02-27T07:17:25.339Z,59.48
2018-02-27T07:19:53.823Z,59.59
2018-02-27T07:22:22.797Z,59.82
2018-02-27T07:24:51.219Z,60.04
2018-02-27T07:27:19.703Z,60.00
2018-02-27T07:29:48.243Z,60.17
2018-02-27T07:32:16.722Z,59.46
2018-02-27T07:34:45.202Z,60.05
2018-02-27T07:37:14.091Z,60.89
2018-02-27T07:39:42.575Z,60.19
2018-02-27T07:42:11.056Z,59.75
2018-02-27T07:44:39.576Z,59.40
2018-02-27T07:47:08.136Z,58.86
2018-02-27T07:49:36.591Z,57.99
2018-02-27T07:52:05.480Z,56.57
2018-02-27T07:54:34.014Z,57.77
2018-02-27T07:57:02.515Z,57.46
2018-02-27T07:59:31.124Z,56.75
2018-02-27T08:01:59.762Z,57.17
2018-02-27T08:04:28.195Z,57.44
2018-02-27T08:06:57.651Z,56.71
2018-02-27T08:09:27.134Z,57.04
2018-02-27T08:11:55.583Z,57.46
2018-02-27T08:14:24.064Z,58.48
2018-02-27T08:16:52.544Z,58.30
2018-02-27T08:19:21.031Z,57.60
2018-02-27T08:21:50.128Z,56.95
2018-02-27T08:24:20.754Z,55.33
2018-02-27T08:26:49.228Z,55.68
2018-02-27T08:29:17.725Z,56.90
2018-02-27T08:31:46.707Z,57.96
2018-02-27T08:34:15.166Z,54.64
2018-02-27T08:36:43.801Z,56.41
2018-02-27T08:39:12.234Z,57.14
2018-02-27T08:41:40.742Z,56.53
2018-02-27T08:44:10.442Z,57.26
2018-02-27T08:46:38.969Z,58.21
2018-02-27T08:49:07.621Z,57.24
2018-02-27T08:51:36.477Z,56.98
2018-02-27T08:54:04.997Z,58.74
2018-02-27T08:56:33.493Z,58.71
2018-02-27T08:59:01.975Z,59.67
2018-02-27T09:01:30.444Z,58.60
2018-02-27T09:03:58.899Z,57.40
2018-02-27T09:06:28.669Z,56.22
2018-02-27T09:08:57.069Z,55.40
2018-02-27T09:11:25.498Z,52.67
2018-02-27T09:13:54.745Z,50.64
2018-02-27T09:16:23.162Z,50.40
2018-02-27T09:18:58.594Z,49.53
2018-02-27T09:21:27.007Z,48.58
2018-02-27T09:23:55.452Z,49.44
2018-02-27T09:26:24.210Z,48.27
2018-02-27T09:28:52.633Z,48.65
2018-02-27T09:31:21.118Z,50.71
2018-02-27T09:33:50.391Z,51.49
2018-02-27T09:36:18.855Z,53.18
2018-02-27T09:38:47.335Z,53.88
2018-02-27T09:41:16.627Z,54.96
2018-02-27T09:43:45.076Z,55.84
2018-02-27T09:46:13.494Z,56.06
2018-02-27T09:48:42.068Z,57.50
2018-02-27T09:51:10.489Z,57.04
2018-02-27T09:53:38.936Z,57.66
2018-02-27T09:56:08.023Z,58.44
2018-02-27T09:58:36.477Z,57.78
2018-02-27T10:01:05.025Z,56.78
2018-02-27T10:03:33.693Z,55.34
2018-02-27T10:06:02.208Z,56.09
2018-02-27T10:08:30.969Z,55.82
2018-02-27T10:10:59.541Z,55.43
2018-02-27T10:13:31.002Z,54.60
2018-02-27T10:15:59.698Z,53.74
2018-02-27T10:18:28.152Z,54.70
2018-02-27T10:20:56.577Z,54.84
2018-02-27T10:23:25.012Z,56.30
2018-02-27T10:25:53.947Z,55.34
2018-02-27T10:28:22.391Z,56.44
2018-02-27T10:30:50.941Z,56.47
2018-02-27T10:33:19.425Z,56.46
2018-02-27T10:35:48.350Z,56.59
2018-02-27T10:38:16.789Z,55.92
2018-02-27T10:40:45.268Z,55.84
2018-02-27T10:43:13.806Z,54.35
2018-02-27T10:45:42.380Z,52.99
2018-02-27T10:48:10.985Z,53.48
2018-02-27T10:50:39.607Z,54.16
2018-02-27T10:53:08.149Z,53.69
2018-02-27T10:55:37.146Z,55.11
2018-02-27T10:58:05.627Z,55.15
2018-02-27T11:00:40.992Z,54.80
2018-02-27T11:03:09.555Z,54.49
2018-02-27T11:05:38.060Z,54.69
2018-02-27T11:08:06.588Z,54.79
2018-02-27T11:10:35.074Z,54.75
2018-02-27T11:13:03.653Z,54.67
2018-02-27T11:15:33.083Z,54.81
2018-02-27T11:18:01.587Z,55.46
2018-02-27T11:20:30.073Z,55.88
2018-02-27T11:22:58.860Z,54.81
2018-02-27T11:25:27.305Z,53.02
2018-02-27T11:27:55.743Z,52.04
2018-02-27T11:30:24.248Z,50.16
2018-02-27T11:32:53.198Z,49.25
2018-02-27T11:35:21.613Z,50.89
2018-02-27T11:37:50.226Z,51.91
2018-02-27T11:40:18.704Z,52.27
2018-02-27T11:42:47.146Z,52.28
2018-02-27T11:45:15.797Z,52.03
2018-02-27T11:47:44.267Z,53.71
2018-02-27T11:50:12.747Z,55.17
2018-02-27T11:52:41.311Z,55.27
2018-02-27T11:55:10.577Z,54.49
2018-02-27T11:57:39.108Z,53.77
2018-02-27T12:00:07.718Z,55.04
2018-02-27T12:02:36.300Z,53.63
2018-02-27T12:05:04.975Z,54.01
2018-02-27T12:07:33.558Z,52.66
2018-02-27T12:10:02.147Z,51.04
2018-02-27T12:12:30.733Z,52.11
2018-02-27T12:14:59.307Z,52.65
2018-02-27T12:17:27.982Z,52.90
2018-02-27T12:19:57.278Z,54.22
2018-02-27T12:22:25.777Z,55.13
2018-02-27T12:24:54.238Z,54.51
2018-02-27T12:27:24.401Z,53.16
2018-02-27T12:29:53.404Z,51.74
2018-02-27T12:32:21.894Z,52.62
2018-02-27T12:34:50.371Z,54.57
2018-02-27T12:37:18.879Z,54.83
2018-02-27T12:39:47.340Z,55.44
2018-02-27T12:42:15.846Z,55.59
2018-02-27T12:44:45.763Z,54.37
2018-02-27T12:47:14.216Z,54.93
2018-02-27T12:49:42.668Z,54.56
2018-02-27T12:52:11.182Z,54.20
2018-02-27T12:54:39.680Z,55.10
2018-02-27T12:57:08.218Z,55.40
2018-02-27T12:59:36.954Z,56.33
2018-02-27T13:02:05.497Z,56.93
2018-02-27T13:04:34.075Z,56.71
2018-02-27T13:07:03.450Z,57.95
2018-02-27T13:09:31.938Z,56.08
2018-02-27T13:12:02.326Z,57.21
2018-02-27T13:14:31.662Z,57.73
2018-02-27T13:17:00.150Z,58.18
2018-02-27T13:19:28.672Z,58.95
2018-02-27T13:21:58.022Z,57.77
2018-02-27T13:24:26.534Z,57.57
2018-02-27T13:26:54.960Z,58.28
2018-02-27T13:29:23.542Z,59.86
2018-02-27T13:31:51.994Z,62.41
2018-02-27T13:34:20.431Z,63.22
2018-02-27T13:36:48.890Z,64.23
2018-02-27T13:39:17.327Z,64.16
2018-02-27T13:41:45.799Z,64.08
2018-02-27T13:44:14.313Z,62.98
2018-02-27T13:46:42.816Z,62.03
2018-02-27T13:49:11.379Z,63.46
2018-02-27T13:51:40.860Z,64.25
2018-02-27T13:54:09.622Z,65.89
2018-02-27T13:56:38.159Z,66.70
2018-02-27T13:59:08.182Z,66.86
2018-02-27T14:01:36.663Z,67.52
2018-02-27T14:04:05.122Z,69.37
2018-02-27T14:06:33.625Z,72.14
2018-02-27T14:09:02.288Z,72.89
2018-02-27T14:11:31.134Z,73.87
2018-02-27T14:14:01.205Z,72.05
2018-02-27T14:16:29.679Z,69.26
2018-02-27T14:18:58.165Z,66.94
2018-02-27T14:21:26.854Z,66.52
2018-02-27T14:23:55.466Z,66.72
2018-02-27T14:26:23.891Z,67.37
2018-02-27T14:28:52.413Z,65.71
2018-02-27T14:31:20.877Z,66.14
2018-02-27T14:33:49.321Z,64.76
2018-02-27T14:36:17.801Z,64.61
2018-02-27T14:38:46.235Z,62.75
2018-02-27T14:41:14.641Z,62.10
2018-02-27T14:43:43.226Z,61.70
2018-02-27T14:46:11.705Z,62.00
2018-02-27T14:48:40.151Z,60.54
2018-02-27T14:51:08.704Z,59.03
2018-02-27T14:53:37.217Z,58.82
2018-02-27T14:56:05.974Z,57.58
2018-02-27T14:58:35.475Z,53.96
2018-02-27T15:01:03.987Z,53.96
2018-02-27T15:03:32.609Z,53.00
2018-02-27T15:06:01.559Z,51.00
2018-02-27T15:08:30.084Z,50.17
2018-02-27T15:10:58.530Z,49.78
2018-02-27T15:13:27.035Z,49.74
2018-02-27T15:15:55.474Z,49.94
2018-02-27T15:18:23.898Z,50.11
2018-02-27T15:20:52.491Z,48.68
2018-02-27T15:23:20.925Z,47.95
2018-02-27T15:25:49.354Z,48.08
2018-02-27T15:28:18.225Z,47.65
2018-02-27T15:30:46.646Z,46.88
2018-02-27T15:33:15.147Z,46.79
2018-02-27T15:35:44.000Z,46.98
2018-02-27T15:38:12.534Z,46.38
2018-02-27T15:40:41.050Z,47.77
2018-02-27T15:43:09.697Z,48.29
2018-02-27T15:45:38.144Z,47.39
2018-02-27T15:48:06.677Z,47.95
2018-02-27T15:50:35.413Z,47.46
2018-02-27T15:53:03.920Z,48.22
2018-02-27T15:55:33.382Z,48.56
2018-02-27T15:58:02.378Z,48.72
2018-02-27T16:00:33.524Z,49.05
2018-02-27T16:03:02.416Z,48.15
2018-02-27T16:05:35.391Z,48.37
2018-02-27T16:08:08.907Z,48.94
2018-02-27T16:10:37.522Z,49.00
2018-02-27T16:13:06.081Z,48.67
2018-02-27T16:15:34.859Z,49.29
2018-02-27T16:18:03.707Z,51.06
2018-02-27T16:20:32.422Z,50.24
2018-02-27T16:23:01.075Z,49.81
2018-02-27T16:25:31.557Z,50.13
2018-02-27T16:28:01.844Z,50.61
2018-02-27T16:30:32.282Z,50.28
2018-02-27T16:33:07.088Z,50.39
2018-02-27T16:35:35.608Z,50.23
2018-02-27T16:38:06.550Z,51.28
2018-02-27T16:40:36.368Z,51.13
2018-02-27T16:43:05.314Z,50.93
2018-02-27T16:45:34.699Z,50.88
2018-02-27T16:48:04.267Z,51.25
2018-02-27T16:50:34.302Z,50.90
2018-02-27T16:53:02.947Z,51.01
2018-02-27T16:55:33.792Z,51.76
2018-02-27T16:58:02.272Z,51.89
2018-02-27T17:00:30.818Z,51.88
2018-02-27T17:03:00.293Z,51.76
2018-02-27T17:05:28.822Z,51.16
2018-02-27T17:07:57.385Z,50.89
2018-02-27T17:10:26.115Z,51.37
2018-02-27T17:12:54.581Z,51.40
2018-02-27T17:15:23.142Z,50.46
2018-02-27T17:17:52.260Z,50.81
2018-02-27T17:20:20.739Z,48.91
2018-02-27T17:22:49.252Z,48.69
2018-02-27T17:25:17.741Z,48.67
2018-02-27T17:27:46.278Z,49.30
2018-02-27T17:30:14.746Z,49.60
2018-02-27T17:32:43.334Z,49.15
2018-02-27T17:35:11.768Z,49.55
2018-02-27T17:37:40.456Z,48.61
2018-02-27T17:40:09.827Z,48.37
2018-02-27T17:42:38.279Z,48.24
2018-02-27T17:45:06.739Z,48.53
2018-02-27T17:47:36.038Z,48.11
2018-02-27T17:50:04.621Z,48.32
2018-02-27T17:52:33.108Z,48.11
2018-02-27T17:55:02.716Z,48.45
2018-02-27T17:57:31.983Z,48.69
2018-02-27T18:00:00.598Z,48.32
2018-02-27T18:02:29.896Z,48.51
2018-02-27T18:04:58.414Z,49.12
2018-02-27T18:07:26.857Z,48.75
2018-02-27T18:09:55.377Z,47.30
2018-02-27T18:12:23.832Z,47.55
2018-02-27T18:14:52.359Z,47.54
2018-02-27T18:17:21.730Z,47.77
2018-02-27T18:19:50.224Z,47.12
2018-02-27T18:22:18.981Z,47.61
2018-02-27T18:24:47.589Z,46.75
2018-02-27T18:27:16.179Z,47.48
2018-02-27T18:29:44.682Z,46.52
2018-02-27T18:32:13.392Z,47.35
2018-02-27T18:34:41.826Z,46.81
2018-02-27T18:37:10.258Z,46.91
2018-02-27T18:39:38.911Z,47.02
2018-02-27T18:42:07.543Z,47.00
2018-02-27T18:44:36.346Z,47.76
2018-02-27T18:47:04.986Z,47.15
2018-02-27T18:49:33.445Z,47.75
2018-02-27T18:52:02.083Z,47.13
2018-02-27T18:54:30.902Z,46.94
2018-02-27T18:56:59.649Z,47.22
2018-02-27T18:59:28.194Z,46.67
2018-02-27T19:01:56.843Z,47.46
2018-02-27T19:04:25.447Z,47.42
2018-02-27T19:06:53.971Z,47.33
2018-02-27T19:09:23.151Z,47.07
2018-02-27T19:11:51.712Z,47.06
2018-02-27T19:14:20.336Z,46.70
2018-02-27T19:16:49.715Z,46.67
2018-02-27T19:19:18.223Z,46.15
2018-02-27T19:21:46.776Z,46.71
2018-02-27T19:24:15.275Z,46.61
2018-02-27T19:26:43.817Z,47.43
2018-02-27T19:29:12.325Z,47.85
2018-02-27T19:31:41.060Z,47.85
2018-02-27T19:34:09.546Z,48.57
2018-02-27T19:36:37.998Z,49.05
2018-02-27T19:39:07.415Z,49.39
2018-02-27T19:41:35.926Z,49.64
2018-02-27T19:44:04.702Z,50.34
2018-02-27T19:46:34.172Z,50.44
2018-02-27T19:49:02.871Z,50.93
2018-02-27T19:51:31.669Z,51.18
2018-02-27T19:54:00.930Z,51.34
2018-02-27T19:56:30.750Z,50.98
2018-02-27T19:58:59.344Z,52.05
2018-02-27T20:01:29.079Z,51.06
2018-02-27T20:03:59.115Z,51.09
2018-02-27T20:06:27.633Z,51.28
2018-02-27T20:08:56.636Z,51.45
2018-02-27T20:11:25.347Z,51.22
2018-02-27T20:13:54.634Z,50.78
2018-02-27T20:16:23.131Z,51.16
2018-02-27T20:18:51.682Z,51.25
2018-02-27T20:21:20.438Z,50.04
2018-02-27T20:23:55.034Z,49.79
2018-02-27T20:26:23.707Z,49.78
2018-02-27T20:28:57.918Z,49.74
2018-02-27T20:31:26.883Z,49.99
2018-02-27T20:33:55.452Z,49.87
2018-02-27T20:36:23.932Z,49.71
2018-02-27T20:38:58.011Z,49.94
2018-02-27T20:41:26.677Z,50.63
2018-02-27T20:43:55.201Z,50.31
2018-02-27T20:46:23.685Z,50.65
2018-02-27T20:48:53.670Z,50.54
2018-02-27T20:51:22.189Z,50.72
2018-02-27T20:53:50.746Z,51.31
2018-02-27T20:56:20.598Z,50.77
2018-02-27T20:58:49.387Z,50.53
2018-02-27T21:01:18.100Z,50.85
2018-02-27T21:03:48.057Z,50.90
2018-02-27T21:06:16.655Z,50.26
2018-02-27T21:08:45.092Z,50.94
2018-02-27T21:11:14.055Z,50.76
2018-02-27T21:13:42.593Z,50.55
2018-02-27T21:16:11.325Z,50.81
2018-02-27T21:18:39.881Z,50.77
2018-02-27T21:21:08.384Z,50.80
2018-02-27T21:23:37.052Z,51.02
2018-02-27T21:26:06.518Z,50.77
2018-02-27T21:28:35.348Z,50.84
2018-02-27T21:31:04.036Z,50.99
2018-02-27T21:33:33.029Z,50.85
2018-02-27T21:36:01.819Z,50.84
2018-02-27T21:38:30.287Z,51.01
2018-02-27T21:40:58.837Z,51.05
2018-02-27T21:43:27.426Z,51.11
2018-02-27T21:45:55.877Z,50.71
2018-02-27T21:48:24.432Z,51.36
2018-02-27T21:50:52.863Z,50.95
2018-02-27T21:53:21.405Z,50.30
2018-02-27T21:55:50.455Z,50.89
2018-02-27T21:58:18.888Z,50.70
2018-02-27T22:00:47.332Z,50.24
2018-02-27T22:03:16.104Z,49.84
2018-02-27T22:05:44.537Z,50.59
2018-02-27T22:08:12.984Z,49.72
2018-02-27T22:10:41.522Z,50.12
2018-02-27T22:13:10.072Z,50.06
2018-02-27T22:15:38.563Z,49.83
2018-02-27T22:18:07.725Z,49.72
2018-02-27T22:20:36.271Z,49.93
2018-02-27T22:23:05.179Z,49.40
2018-02-27T22:25:35.559Z,50.05
2018-02-27T22:28:04.696Z,49.62
2018-02-27T22:30:33.229Z,49.86
2018-02-27T22:33:02.900Z,49.81
2018-02-27T22:35:31.585Z,49.64
2018-02-27T22:38:00.080Z,49.55
2018-02-27T22:40:28.612Z,49.47
2018-02-27T22:42:57.131Z,49.75
2018-02-27T22:45:25.564Z,49.77
2018-02-27T22:47:54.668Z,49.92
2018-02-27T22:50:23.095Z,49.63
2018-02-27T22:52:51.594Z,49.73
2018-02-27T22:55:21.040Z,49.44
2018-02-27T22:57:49.459Z,50.35
2018-02-27T23:00:29.761Z,50.11
2018-02-27T23:02:58.300Z,49.92
2018-02-27T23:05:27.460Z,49.49
2018-02-27T23:07:56.388Z,50.34
2018-02-27T23:10:24.839Z,49.73
2018-02-27T23:12:53.264Z,49.96
2018-02-27T23:15:22.943Z,49.66
2018-02-27T23:17:51.373Z,48.98
2018-02-27T23:20:19.804Z,49.67
2018-02-27T23:22:48.519Z,49.50
2018-02-27T23:25:38.378Z,49.48
2018-02-27T23:28:08.497Z,49.54
2018-02-27T23:30:38.613Z,50.08
2018-02-27T23:33:09.823Z,49.50
2018-02-27T23:35:38.384Z,49.39
2018-02-27T23:38:06.997Z,49.48
2018-02-27T23:40:37.225Z,49.44
2018-02-27T23:43:05.950Z,49.98
2018-02-27T23:45:34.529Z,50.01
2018-02-27T23:48:03.175Z,48.77
2018-02-27T23:50:31.912Z,48.39
2018-02-27T23:53:00.367Z,48.32
2018-02-27T23:55:29.076Z,48.67
2018-02-27T23:57:57.510Z,48.98
